createdAt,value
2022-08-29T00:03:36.615Z,7.20
2022-08-29T00:08:40.131Z,6.50
2022-08-29T00:13:43.542Z,6.50
2022-08-29T00:18:46.957Z,5.20
2022-08-29T00:23:50.576Z,4.80
2022-08-29T00:28:54.089Z,6.50
2022-08-29T00:33:58.124Z,7.10
2022-08-29T00:39:01.538Z,6.90
2022-08-29T00:44:05.309Z,4.90
2022-08-29T00:54:15.971Z,5.30
2022-08-29T00:59:26.044Z,5.10
2022-08-29T01:04:33.036Z,6.30
2022-08-29T01:09:38.834Z,6.70
2022-08-29T01:15:05.259Z,6.30
2022-08-29T01:20:25.467Z,6.50
2022-08-29T01:25:35.330Z,7.30
2022-08-29T01:31:05.273Z,8.10
2022-08-29T01:36:12.018Z,6.00
2022-08-29T01:41:18.122Z,7.40
2022-08-29T01:46:28.818Z,8.00
2022-08-29T01:51:32.539Z,6.30
2022-08-29T01:56:40.047Z,8.20
2022-08-29T02:02:06.358Z,7.10
2022-08-29T02:07:12.735Z,7.40
2022-08-29T02:12:16.914Z,8.70
2022-08-29T02:17:20.323Z,8.50
2022-08-29T02:22:23.636Z,7.60
2022-08-29T02:27:26.947Z,8.50
2022-08-29T02:32:30.667Z,8.00
2022-08-29T02:42:37.189Z,7.10
2022-08-29T02:47:41.173Z,6.60
2022-08-29T02:57:48.448Z,5.90
2022-08-29T03:02:53.167Z,6.60
2022-08-29T03:07:58.131Z,6.80
2022-08-29T03:13:01.760Z,6.70
2022-08-29T03:23:10.636Z,6.80
2022-08-29T03:28:14.289Z,6.60
2022-08-29T03:33:18.384Z,6.90
2022-08-29T03:38:23.128Z,6.10
2022-08-29T03:43:26.544Z,8.10
2022-08-29T03:48:29.852Z,7.00
2022-08-29T03:53:33.879Z,7.60
2022-08-29T03:58:38.420Z,7.60
2022-08-29T04:03:41.731Z,7.60
2022-08-29T04:08:47.655Z,7.80
2022-08-29T04:13:53.272Z,6.60
2022-08-29T04:18:56.578Z,7.70
2022-08-29T04:23:59.995Z,6.90
2022-08-29T04:29:04.226Z,6.20
2022-08-29T04:34:09.687Z,7.80
2022-08-29T04:39:13.815Z,7.90
2022-08-29T04:44:17.125Z,7.00
2022-08-29T04:49:21.972Z,7.10
2022-08-29T04:54:25.694Z,6.90
2022-08-29T04:59:29.413Z,6.90
2022-08-29T05:09:35.936Z,6.80
2022-08-29T05:14:40.376Z,6.10
2022-08-29T05:19:44.978Z,5.90
2022-08-29T05:24:50.068Z,7.30
2022-08-29T05:29:54.249Z,6.70
2022-08-29T05:34:59.348Z,5.80
2022-08-29T05:40:03.734Z,5.00
2022-08-29T05:45:08.171Z,6.00
2022-08-29T05:50:12.250Z,6.80
2022-08-29T05:55:15.871Z,7.50
2022-08-29T06:00:19.793Z,6.40
2022-08-29T06:05:23.104Z,6.80
2022-08-29T06:10:26.620Z,6.00
2022-08-29T06:15:30.267Z,6.20
2022-08-29T06:20:33.959Z,5.20
2022-08-29T06:25:40.128Z,5.50
2022-08-29T06:30:44.013Z,5.00
2022-08-29T06:35:47.475Z,5.00
2022-08-29T06:40:50.993Z,4.60
2022-08-29T06:45:54.635Z,4.80
2022-08-29T06:51:00.684Z,5.30
2022-08-29T06:56:06.449Z,5.40
2022-08-29T07:01:17.699Z,5.50
2022-08-29T07:06:21.783Z,5.70
2022-08-29T07:11:27.243Z,6.30
2022-08-29T07:16:32.509Z,6.00
2022-08-29T07:21:36.627Z,5.30
2022-08-29T07:26:43.475Z,5.40
2022-08-29T07:31:47.808Z,6.10
2022-08-29T07:36:51.267Z,5.50
2022-08-29T07:41:54.636Z,4.90
2022-08-29T07:46:59.994Z,5.20
2022-08-29T07:52:03.761Z,5.30
2022-08-29T08:02:10.770Z,5.60
2022-08-29T08:07:14.618Z,5.70
2022-08-29T08:12:18.341Z,5.20
2022-08-29T08:22:25.675Z,6.00
2022-08-29T08:27:29.294Z,6.00
2022-08-29T08:32:33.629Z,6.20
2022-08-29T08:37:40.527Z,6.50
2022-08-29T08:42:46.219Z,7.30
2022-08-29T08:48:13.975Z,6.80
2022-08-29T08:53:35.206Z,5.50
2022-08-29T08:58:54.593Z,6.30
2022-08-29T09:04:17.155Z,5.00
2022-08-29T09:09:32.860Z,5.90
2022-08-29T09:15:04.537Z,5.50
2022-08-29T09:20:15.524Z,5.10
2022-08-29T09:25:19.347Z,4.00
2022-08-29T09:30:26.548Z,3.40
2022-08-29T09:35:37.849Z,3.60
2022-08-29T09:40:55.902Z,4.30
2022-08-29T09:46:03.924Z,4.30
2022-08-29T09:51:15.939Z,4.00
2022-08-29T09:56:26.734Z,3.80
2022-08-29T10:01:32.663Z,4.40
2022-08-29T10:06:46.224Z,3.60
2022-08-29T10:12:00.790Z,3.50
2022-08-29T10:17:33.317Z,2.80
2022-08-29T10:22:42.574Z,3.00
2022-08-29T10:28:07.094Z,2.40
2022-08-29T10:33:16.623Z,2.80
2022-08-29T10:38:47.492Z,2.60
2022-08-29T10:43:50.804Z,3.10
2022-08-29T10:54:53.339Z,2.70
2022-08-29T11:00:10.652Z,2.50
2022-08-29T11:05:25.560Z,2.40
2022-08-29T11:10:33.742Z,2.20
2022-08-29T11:15:43.135Z,1.80
2022-08-29T11:20:52.283Z,1.50
2022-08-29T11:26:02.466Z,3.30
2022-08-29T11:31:44.535Z,2.10
2022-08-29T11:36:47.887Z,2.50
2022-08-29T11:47:22.464Z,1.40
2022-08-29T11:52:27.470Z,2.00
2022-08-29T11:57:31.645Z,3.70
2022-08-29T12:02:39.561Z,1.40
2022-08-29T12:08:03.061Z,1.70
2022-08-29T12:13:42.506Z,1.60
2022-08-29T12:18:49.065Z,1.70
2022-08-29T12:23:52.454Z,1.30
2022-08-29T12:29:00.887Z,1.50
2022-08-29T12:34:07.216Z,2.10
2022-08-29T12:39:27.117Z,1.30
2022-08-29T12:44:48.947Z,1.20
2022-08-29T12:49:57.409Z,1.40
2022-08-29T12:55:28.823Z,1.40
2022-08-29T13:00:34.476Z,1.80
2022-08-29T13:05:41.528Z,2.10
2022-08-29T13:11:13.309Z,3.00
2022-08-29T13:16:30.299Z,5.30
2022-08-29T13:21:34.368Z,4.00
2022-08-29T13:26:50.433Z,1.20
2022-08-29T13:32:32.803Z,2.40
2022-08-29T13:37:39.903Z,7.60
2022-08-29T13:42:45.979Z,2.30
2022-08-29T13:48:02.704Z,2.10
2022-08-29T13:53:06.013Z,3.00
2022-08-29T13:58:11.732Z,5.00
2022-08-29T14:03:18.503Z,6.30
2022-08-29T14:08:23.758Z,1.60
2022-08-29T14:13:28.371Z,1.20
2022-08-29T14:18:32.099Z,1.00
2022-08-29T14:23:36.528Z,1.10
2022-08-29T14:28:42.134Z,1.20
2022-08-29T14:33:51.618Z,1.00
2022-08-29T14:38:55.371Z,1.00
2022-08-29T14:43:59.401Z,0.90
2022-08-29T14:49:03.424Z,1.10
2022-08-29T14:54:06.737Z,1.20
2022-08-29T14:59:10.048Z,0.90
2022-08-29T15:04:13.975Z,1.20
2022-08-29T15:09:17.487Z,1.30
2022-08-29T15:14:20.902Z,1.50
2022-08-29T15:20:15.821Z,2.00
2022-08-29T15:24:50.353Z,2.20
2022-08-29T15:29:53.979Z,2.40
2022-08-29T15:34:57.799Z,2.70
2022-08-29T15:40:01.237Z,2.30
2022-08-29T15:45:08.227Z,1.50
2022-08-29T15:50:11.627Z,1.40
2022-08-29T15:55:15.006Z,0.90
2022-08-29T16:00:29.610Z,0.90
2022-08-29T16:05:36.422Z,1.10
2022-08-29T16:11:49.754Z,0.90
2022-08-29T16:16:52.963Z,0.90
2022-08-29T16:22:00.277Z,0.80
2022-08-29T16:27:04.707Z,1.20
2022-08-29T16:32:08.937Z,0.90
2022-08-29T16:37:12.455Z,0.70
2022-08-29T16:42:16.173Z,0.90
2022-08-29T16:47:19.691Z,0.90
2022-08-29T16:52:23.160Z,1.10
2022-08-29T16:57:26.925Z,1.10
2022-08-29T17:02:30.375Z,0.70
2022-08-29T17:07:33.754Z,1.00
2022-08-29T17:12:36.960Z,0.80
2022-08-29T17:28:14.321Z,1.20
2022-08-29T17:33:12.117Z,1.00
2022-08-29T17:38:16.445Z,0.90
2022-08-29T17:43:20.070Z,1.10
2022-08-29T17:48:23.791Z,0.70
2022-08-29T17:53:27.307Z,1.20
2022-08-29T17:58:30.823Z,0.90
2022-08-29T18:03:34.202Z,1.20
2022-08-29T18:08:38.575Z,1.10
2022-08-29T18:13:43.422Z,1.30
2022-08-29T18:18:49.993Z,1.00
2022-08-29T18:23:54.237Z,1.50
2022-08-29T18:29:00.620Z,1.10
2022-08-29T18:34:04.446Z,1.10
2022-08-29T18:44:13.009Z,1.30
2022-08-29T18:49:17.864Z,1.10
2022-08-29T18:54:25.232Z,0.90
2022-08-29T18:59:30.623Z,1.00
2022-08-29T19:04:33.932Z,1.70
2022-08-29T19:09:37.449Z,1.60
2022-08-29T19:14:46.153Z,1.50
2022-08-29T19:20:10.216Z,2.00
2022-08-29T19:25:14.416Z,1.30
2022-08-29T19:35:23.803Z,1.40
2022-08-29T19:40:28.146Z,1.70
2022-08-29T19:45:32.107Z,1.30
2022-08-29T19:50:36.298Z,1.50
2022-08-29T19:55:40.836Z,1.50
2022-08-29T20:00:46.067Z,2.10
2022-08-29T20:05:49.605Z,1.30
2022-08-29T20:10:53.738Z,1.80
2022-08-29T20:15:57.098Z,1.60
2022-08-29T20:26:04.489Z,1.00
2022-08-29T20:31:08.359Z,1.80
2022-08-29T20:36:31.284Z,1.50
2022-08-29T20:41:34.696Z,1.60
2022-08-29T20:46:40.738Z,1.90
2022-08-29T20:51:44.799Z,1.20
2022-08-29T21:01:52.937Z,1.60
2022-08-29T21:07:02.165Z,1.90
2022-08-29T21:12:07.671Z,1.50
2022-08-29T21:17:12.413Z,1.10
2022-08-29T21:22:16.082Z,1.60
2022-08-29T21:27:20.057Z,1.40
2022-08-29T21:32:23.675Z,1.60
2022-08-29T21:37:27.300Z,1.30
2022-08-29T21:42:30.910Z,1.50
2022-08-29T21:47:34.223Z,1.70
2022-08-29T21:52:37.946Z,2.20
2022-08-29T21:57:53.545Z,2.90
2022-08-29T22:02:58.246Z,3.40
2022-08-29T22:08:04.564Z,3.70
2022-08-29T22:13:09.087Z,2.60
2022-08-29T22:18:15.185Z,1.90
2022-08-29T22:23:20.204Z,1.50
2022-08-29T22:28:23.855Z,1.50
2022-08-29T22:33:27.161Z,1.80
2022-08-29T22:38:31.804Z,1.30
2022-08-29T22:43:35.319Z,1.60
2022-08-29T22:48:39.729Z,2.10
2022-08-29T22:54:03.957Z,1.50
2022-08-29T23:04:12.167Z,1.80
2022-08-29T23:09:16.557Z,1.80
2022-08-29T23:14:20.994Z,1.40
2022-08-29T23:19:24.402Z,1.70
2022-08-29T23:24:28.121Z,1.50
2022-08-29T23:29:33.275Z,1.70
2022-08-29T23:34:38.840Z,1.30
2022-08-29T23:39:42.149Z,1.40
2022-08-29T23:44:48.507Z,2.00
2022-08-29T23:49:52.258Z,1.20
2022-08-29T23:54:55.770Z,1.30
